sensor_id;sensor_type;location;lat;lon;timestamp;P1;durP1;ratioP1;P2;durP2;ratioP2
10295;SDS011;5193;51.032;6.356;2023-12-29T00:01:09;5.03;;;1.00;;
10295;SDS011;5193;51.032;6.356;2023-12-29T00:03:41;9.97;;;1.90;;
10295;SDS011;5193;51.032;6.356;2023-12-29T00:09:04;6.87;;;1.30;;
10295;SDS011;5193;51.032;6.356;2023-12-29T00:11:30;5.60;;;0.90;;
10295;SDS011;5193;51.032;6.356;2023-12-29T00:13:59;3.80;;;1.50;;
10295;SDS011;5193;51.032;6.356;2023-12-29T00:16:25;10.00;;;1.50;;
10295;SDS011;5193;51.032;6.356;2023-12-29T00:18:52;2.97;;;1.00;;
10295;SDS011;5193;51.032;6.356;2023-12-29T00:24:42;7.33;;;1.37;;
10295;SDS011;5193;51.032;6.356;2023-12-29T00:27:09;3.97;;;1.10;;
10295;SDS011;5193;51.032;6.356;2023-12-29T00:29:36;5.93;;;1.00;;
10295;SDS011;5193;51.032;6.356;2023-12-29T00:32:05;9.37;;;1.47;;
10295;SDS011;5193;51.032;6.356;2023-12-29T00:34:30;10.10;;;1.47;;
10295;SDS011;5193;51.032;6.356;2023-12-29T00:37:05;9.33;;;1.37;;
10295;SDS011;5193;51.032;6.356;2023-12-29T00:39:32;4.40;;;1.30;;
10295;SDS011;5193;51.032;6.356;2023-12-29T00:42:05;0.97;;;0.77;;
10295;SDS011;5193;51.032;6.356;2023-12-29T00:44:33;4.47;;;1.10;;
10295;SDS011;5193;51.032;6.356;2023-12-29T00:47:02;4.17;;;1.10;;
10295;SDS011;5193;51.032;6.356;2023-12-29T00:49:31;6.23;;;2.00;;
10295;SDS011;5193;51.032;6.356;2023-12-29T00:51:56;4.80;;;1.73;;
10295;SDS011;5193;51.032;6.356;2023-12-29T00:54:23;5.20;;;1.50;;
10295;SDS011;5193;51.032;6.356;2023-12-29T00:56:50;7.90;;;1.77;;
10295;SDS011;5193;51.032;6.356;2023-12-29T00:59:19;4.77;;;1.40;;
10295;SDS011;5193;51.032;6.356;2023-12-29T01:01:45;6.13;;;1.37;;
10295;SDS011;5193;51.032;6.356;2023-12-29T01:07:34;4.30;;;1.53;;
10295;SDS011;5193;51.032;6.356;2023-12-29T01:09:59;5.37;;;1.60;;
10295;SDS011;5193;51.032;6.356;2023-12-29T01:12:26;11.30;;;1.40;;
10295;SDS011;5193;51.032;6.356;2023-12-29T01:14:52;4.80;;;1.37;;
10295;SDS011;5193;51.032;6.356;2023-12-29T01:17:21;7.77;;;1.63;;
10295;SDS011;5193;51.032;6.356;2023-12-29T01:19:47;8.47;;;1.67;;
10295;SDS011;5193;51.032;6.356;2023-12-29T01:22:16;5.50;;;1.47;;
10295;SDS011;5193;51.032;6.356;2023-12-29T01:27:33;6.30;;;1.47;;
10295;SDS011;5193;51.032;6.356;2023-12-29T01:30:03;6.93;;;2.00;;
10295;SDS011;5193;51.032;6.356;2023-12-29T01:32:35;5.90;;;1.57;;
10295;SDS011;5193;51.032;6.356;2023-12-29T01:35:11;5.53;;;1.57;;
10295;SDS011;5193;51.032;6.356;2023-12-29T01:37:41;5.37;;;1.37;;
10295;SDS011;5193;51.032;6.356;2023-12-29T01:40:10;3.40;;;1.13;;
10295;SDS011;5193;51.032;6.356;2023-12-29T01:42:46;6.07;;;1.20;;
10295;SDS011;5193;51.032;6.356;2023-12-29T01:45:22;7.37;;;1.60;;
10295;SDS011;5193;51.032;6.356;2023-12-29T01:47:55;6.83;;;1.70;;
10295;SDS011;5193;51.032;6.356;2023-12-29T01:50:23;6.97;;;1.43;;
10295;SDS011;5193;51.032;6.356;2023-12-29T01:52:52;4.97;;;1.50;;
10295;SDS011;5193;51.032;6.356;2023-12-29T01:55:19;7.13;;;1.70;;
10295;SDS011;5193;51.032;6.356;2023-12-29T01:57:50;6.47;;;1.33;;
10295;SDS011;5193;51.032;6.356;2023-12-29T02:00:21;7.07;;;1.03;;
10295;SDS011;5193;51.032;6.356;2023-12-29T02:02:47;5.87;;;1.30;;
10295;SDS011;5193;51.032;6.356;2023-12-29T02:05:17;3.27;;;1.63;;
10295;SDS011;5193;51.032;6.356;2023-12-29T02:07:46;5.17;;;1.87;;
10295;SDS011;5193;51.032;6.356;2023-12-29T02:10:19;6.33;;;1.70;;
10295;SDS011;5193;51.032;6.356;2023-12-29T02:12:50;8.97;;;1.93;;
10295;SDS011;5193;51.032;6.356;2023-12-29T02:15:19;9.97;;;1.27;;
10295;SDS011;5193;51.032;6.356;2023-12-29T02:17:50;5.40;;;1.60;;
10295;SDS011;5193;51.032;6.356;2023-12-29T02:20:27;8.07;;;1.57;;
10295;SDS011;5193;51.032;6.356;2023-12-29T02:22:54;7.50;;;1.70;;
10295;SDS011;5193;51.032;6.356;2023-12-29T02:25:24;1.80;;;1.03;;
10295;SDS011;5193;51.032;6.356;2023-12-29T02:27:58;7.90;;;1.30;;
10295;SDS011;5193;51.032;6.356;2023-12-29T02:30:38;5.77;;;1.60;;
10295;SDS011;5193;51.032;6.356;2023-12-29T02:33:19;7.53;;;1.50;;
10295;SDS011;5193;51.032;6.356;2023-12-29T02:35:48;5.80;;;1.53;;
10295;SDS011;5193;51.032;6.356;2023-12-29T02:38:18;7.90;;;1.87;;
10295;SDS011;5193;51.032;6.356;2023-12-29T02:40:45;6.13;;;1.70;;
10295;SDS011;5193;51.032;6.356;2023-12-29T02:43:18;6.87;;;1.70;;
10295;SDS011;5193;51.032;6.356;2023-12-29T02:45:45;5.33;;;1.40;;
10295;SDS011;5193;51.032;6.356;2023-12-29T02:48:15;4.97;;;1.57;;
10295;SDS011;5193;51.032;6.356;2023-12-29T02:50:42;4.80;;;1.17;;
10295;SDS011;5193;51.032;6.356;2023-12-29T02:53:08;5.30;;;1.17;;
10295;SDS011;5193;51.032;6.356;2023-12-29T02:55:34;11.03;;;1.50;;
10295;SDS011;5193;51.032;6.356;2023-12-29T02:58:03;9.83;;;1.90;;
10295;SDS011;5193;51.032;6.356;2023-12-29T03:00:28;2.33;;;1.00;;
10295;SDS011;5193;51.032;6.356;2023-12-29T03:02:56;4.57;;;1.33;;
10295;SDS011;5193;51.032;6.356;2023-12-29T03:05:21;7.00;;;1.57;;
10295;SDS011;5193;51.032;6.356;2023-12-29T03:11:12;5.87;;;1.40;;
10295;SDS011;5193;51.032;6.356;2023-12-29T03:13:39;7.57;;;1.80;;
10295;SDS011;5193;51.032;6.356;2023-12-29T03:16:07;3.17;;;1.23;;
10295;SDS011;5193;51.032;6.356;2023-12-29T03:18:33;2.47;;;1.10;;
10295;SDS011;5193;51.032;6.356;2023-12-29T03:21:04;18.63;;;1.17;;
10295;SDS011;5193;51.032;6.356;2023-12-29T03:23:31;3.70;;;1.53;;
10295;SDS011;5193;51.032;6.356;2023-12-29T03:25:59;7.47;;;1.33;;
10295;SDS011;5193;51.032;6.356;2023-12-29T03:28:25;7.13;;;1.30;;
10295;SDS011;5193;51.032;6.356;2023-12-29T03:34:12;6.53;;;1.17;;
10295;SDS011;5193;51.032;6.356;2023-12-29T03:36:37;3.37;;;1.00;;
10295;SDS011;5193;51.032;6.356;2023-12-29T03:39:03;4.90;;;1.70;;
10295;SDS011;5193;51.032;6.356;2023-12-29T03:41:29;3.00;;;1.30;;
10295;SDS011;5193;51.032;6.356;2023-12-29T03:43:55;4.07;;;1.03;;
10295;SDS011;5193;51.032;6.356;2023-12-29T03:46:21;10.57;;;1.57;;
10295;SDS011;5193;51.032;6.356;2023-12-29T03:48:48;5.43;;;1.60;;
10295;SDS011;5193;51.032;6.356;2023-12-29T03:51:18;6.60;;;1.27;;
10295;SDS011;5193;51.032;6.356;2023-12-29T03:53:43;7.90;;;1.53;;
10295;SDS011;5193;51.032;6.356;2023-12-29T03:56:13;7.40;;;1.80;;
10295;SDS011;5193;51.032;6.356;2023-12-29T03:58:41;4.93;;;1.60;;
10295;SDS011;5193;51.032;6.356;2023-12-29T04:01:24;9.50;;;1.40;;
10295;SDS011;5193;51.032;6.356;2023-12-29T04:03:50;2.83;;;1.07;;
10295;SDS011;5193;51.032;6.356;2023-12-29T04:06:16;4.60;;;1.57;;
10295;SDS011;5193;51.032;6.356;2023-12-29T04:08:42;6.33;;;1.10;;
10295;SDS011;5193;51.032;6.356;2023-12-29T04:14:30;5.40;;;1.03;;
10295;SDS011;5193;51.032;6.356;2023-12-29T04:16:56;11.83;;;1.27;;
10295;SDS011;5193;51.032;6.356;2023-12-29T04:19:25;2.70;;;1.07;;
10295;SDS011;5193;51.032;6.356;2023-12-29T04:21:50;6.93;;;1.57;;
10295;SDS011;5193;51.032;6.356;2023-12-29T04:24:29;5.00;;;1.00;;
10295;SDS011;5193;51.032;6.356;2023-12-29T04:26:58;5.13;;;1.00;;
10295;SDS011;5193;51.032;6.356;2023-12-29T04:29:24;3.87;;;1.27;;
10295;SDS011;5193;51.032;6.356;2023-12-29T04:31:51;5.20;;;1.07;;
10295;SDS011;5193;51.032;6.356;2023-12-29T04:34:19;4.47;;;1.17;;
10295;SDS011;5193;51.032;6.356;2023-12-29T04:36:51;4.90;;;1.10;;
10295;SDS011;5193;51.032;6.356;2023-12-29T04:39:17;8.80;;;1.00;;
10295;SDS011;5193;51.032;6.356;2023-12-29T04:41:43;2.53;;;0.80;;
10295;SDS011;5193;51.032;6.356;2023-12-29T04:44:08;11.23;;;1.40;;
10295;SDS011;5193;51.032;6.356;2023-12-29T04:46:34;7.13;;;1.37;;
10295;SDS011;5193;51.032;6.356;2023-12-29T04:49:08;6.20;;;1.30;;
10295;SDS011;5193;51.032;6.356;2023-12-29T04:51:34;6.70;;;1.20;;
10295;SDS011;5193;51.032;6.356;2023-12-29T04:54:01;6.20;;;1.10;;
10295;SDS011;5193;51.032;6.356;2023-12-29T04:56:28;4.47;;;0.93;;
10295;SDS011;5193;51.032;6.356;2023-12-29T04:58:54;4.83;;;1.37;;
10295;SDS011;5193;51.032;6.356;2023-12-29T05:01:26;14.53;;;1.47;;
10295;SDS011;5193;51.032;6.356;2023-12-29T05:03:54;5.07;;;1.33;;
10295;SDS011;5193;51.032;6.356;2023-12-29T05:06:20;4.47;;;1.60;;
10295;SDS011;5193;51.032;6.356;2023-12-29T05:08:50;4.87;;;1.50;;
10295;SDS011;5193;51.032;6.356;2023-12-29T05:11:28;5.30;;;1.20;;
10295;SDS011;5193;51.032;6.356;2023-12-29T05:14:06;3.83;;;1.70;;
10295;SDS011;5193;51.032;6.356;2023-12-29T05:16:31;7.37;;;1.50;;
10295;SDS011;5193;51.032;6.356;2023-12-29T05:18:57;7.57;;;1.23;;
10295;SDS011;5193;51.032;6.356;2023-12-29T05:21:26;8.63;;;1.60;;
10295;SDS011;5193;51.032;6.356;2023-12-29T05:23:51;5.27;;;1.00;;
10295;SDS011;5193;51.032;6.356;2023-12-29T05:26:20;6.07;;;1.40;;
10295;SDS011;5193;51.032;6.356;2023-12-29T05:28:46;11.03;;;1.83;;
10295;SDS011;5193;51.032;6.356;2023-12-29T05:31:16;7.33;;;1.30;;
10295;SDS011;5193;51.032;6.356;2023-12-29T05:33:45;5.57;;;1.20;;
10295;SDS011;5193;51.032;6.356;2023-12-29T05:39:27;4.33;;;1.13;;
10295;SDS011;5193;51.032;6.356;2023-12-29T05:41:55;7.50;;;1.20;;
10295;SDS011;5193;51.032;6.356;2023-12-29T05:47:42;5.07;;;1.17;;
10295;SDS011;5193;51.032;6.356;2023-12-29T05:50:09;3.20;;;1.00;;
10295;SDS011;5193;51.032;6.356;2023-12-29T05:52:35;5.50;;;1.30;;
10295;SDS011;5193;51.032;6.356;2023-12-29T05:55:04;4.80;;;1.20;;
10295;SDS011;5193;51.032;6.356;2023-12-29T05:57:29;3.17;;;0.90;;
10295;SDS011;5193;51.032;6.356;2023-12-29T05:59:56;8.20;;;1.20;;
10295;SDS011;5193;51.032;6.356;2023-12-29T06:02:28;6.80;;;1.47;;
10295;SDS011;5193;51.032;6.356;2023-12-29T06:04:57;7.93;;;1.53;;
10295;SDS011;5193;51.032;6.356;2023-12-29T06:10:39;3.57;;;1.20;;
10295;SDS011;5193;51.032;6.356;2023-12-29T06:13:06;7.63;;;1.53;;
10295;SDS011;5193;51.032;6.356;2023-12-29T06:15:33;3.83;;;0.87;;
10295;SDS011;5193;51.032;6.356;2023-12-29T06:17:59;4.90;;;1.03;;
10295;SDS011;5193;51.032;6.356;2023-12-29T06:20:28;14.13;;;1.87;;
10295;SDS011;5193;51.032;6.356;2023-12-29T06:23:06;5.03;;;0.97;;
10295;SDS011;5193;51.032;6.356;2023-12-29T06:25:36;3.80;;;1.17;;
10295;SDS011;5193;51.032;6.356;2023-12-29T06:28:24;8.07;;;1.87;;
10295;SDS011;5193;51.032;6.356;2023-12-29T06:30:50;2.10;;;1.17;;
10295;SDS011;5193;51.032;6.356;2023-12-29T06:33:29;5.70;;;1.30;;
10295;SDS011;5193;51.032;6.356;2023-12-29T06:35:55;3.30;;;1.00;;
10295;SDS011;5193;51.032;6.356;2023-12-29T06:41:36;4.77;;;1.07;;
10295;SDS011;5193;51.032;6.356;2023-12-29T06:44:03;8.23;;;1.20;;
10295;SDS011;5193;51.032;6.356;2023-12-29T06:46:29;2.63;;;0.97;;
10295;SDS011;5193;51.032;6.356;2023-12-29T06:48:56;7.73;;;1.63;;
10295;SDS011;5193;51.032;6.356;2023-12-29T06:51:23;3.57;;;1.30;;
10295;SDS011;5193;51.032;6.356;2023-12-29T06:53:52;4.33;;;1.00;;
10295;SDS011;5193;51.032;6.356;2023-12-29T06:56:22;6.97;;;1.40;;
10295;SDS011;5193;51.032;6.356;2023-12-29T06:58:48;4.03;;;1.00;;
10295;SDS011;5193;51.032;6.356;2023-12-29T07:01:14;7.77;;;1.30;;
10295;SDS011;5193;51.032;6.356;2023-12-29T07:03:42;10.07;;;1.33;;
10295;SDS011;5193;51.032;6.356;2023-12-29T07:09:19;3.53;;;0.90;;
10295;SDS011;5193;51.032;6.356;2023-12-29T07:11:48;12.60;;;1.47;;
10295;SDS011;5193;51.032;6.356;2023-12-29T07:14:14;4.73;;;0.83;;
10295;SDS011;5193;51.032;6.356;2023-12-29T07:16:40;5.00;;;1.30;;
10295;SDS011;5193;51.032;6.356;2023-12-29T07:19:16;5.83;;;1.53;;
10295;SDS011;5193;51.032;6.356;2023-12-29T07:21:42;4.70;;;1.43;;
10295;SDS011;5193;51.032;6.356;2023-12-29T07:24:07;5.33;;;0.80;;
10295;SDS011;5193;51.032;6.356;2023-12-29T07:29:31;5.20;;;1.27;;
10295;SDS011;5193;51.032;6.356;2023-12-29T07:31:59;2.50;;;1.00;;
10295;SDS011;5193;51.032;6.356;2023-12-29T07:34:25;4.70;;;1.67;;
10295;SDS011;5193;51.032;6.356;2023-12-29T07:36:51;6.07;;;1.87;;
10295;SDS011;5193;51.032;6.356;2023-12-29T07:39:20;8.10;;;1.43;;
10295;SDS011;5193;51.032;6.356;2023-12-29T07:41:55;4.87;;;1.07;;
10295;SDS011;5193;51.032;6.356;2023-12-29T07:44:27;4.23;;;1.30;;
10295;SDS011;5193;51.032;6.356;2023-12-29T07:50:01;7.07;;;1.53;;
10295;SDS011;5193;51.032;6.356;2023-12-29T07:52:30;7.70;;;1.50;;
10295;SDS011;5193;51.032;6.356;2023-12-29T07:54:59;7.57;;;1.30;;
10295;SDS011;5193;51.032;6.356;2023-12-29T07:57:26;5.00;;;1.23;;
10295;SDS011;5193;51.032;6.356;2023-12-29T07:59:53;4.20;;;1.37;;
10295;SDS011;5193;51.032;6.356;2023-12-29T08:05:32;12.17;;;1.60;;
10295;SDS011;5193;51.032;6.356;2023-12-29T08:07:58;6.53;;;1.73;;
10295;SDS011;5193;51.032;6.356;2023-12-29T08:10:24;5.20;;;1.33;;
10295;SDS011;5193;51.032;6.356;2023-12-29T08:12:52;7.40;;;1.40;;
10295;SDS011;5193;51.032;6.356;2023-12-29T08:15:25;4.90;;;1.10;;
10295;SDS011;5193;51.032;6.356;2023-12-29T08:17:54;8.37;;;1.93;;
10295;SDS011;5193;51.032;6.356;2023-12-29T08:23:24;6.57;;;1.23;;
10295;SDS011;5193;51.032;6.356;2023-12-29T08:25:56;4.57;;;1.30;;
10295;SDS011;5193;51.032;6.356;2023-12-29T08:28:24;6.43;;;1.60;;
10295;SDS011;5193;51.032;6.356;2023-12-29T08:30:50;6.43;;;1.63;;
10295;SDS011;5193;51.032;6.356;2023-12-29T08:33:17;5.63;;;1.23;;
10295;SDS011;5193;51.032;6.356;2023-12-29T08:35:44;5.20;;;1.40;;
10295;SDS011;5193;51.032;6.356;2023-12-29T08:38:23;5.00;;;1.50;;
10295;SDS011;5193;51.032;6.356;2023-12-29T08:40:56;5.50;;;1.00;;
10295;SDS011;5193;51.032;6.356;2023-12-29T08:43:21;4.67;;;1.47;;
10295;SDS011;5193;51.032;6.356;2023-12-29T08:45:51;4.87;;;1.33;;
10295;SDS011;5193;51.032;6.356;2023-12-29T08:48:18;9.60;;;1.97;;
10295;SDS011;5193;51.032;6.356;2023-12-29T08:50:50;6.60;;;1.50;;
10295;SDS011;5193;51.032;6.356;2023-12-29T08:53:19;4.73;;;1.30;;
10295;SDS011;5193;51.032;6.356;2023-12-29T08:55:47;4.10;;;1.07;;
10295;SDS011;5193;51.032;6.356;2023-12-29T08:58:12;5.33;;;1.20;;
10295;SDS011;5193;51.032;6.356;2023-12-29T09:00:38;5.67;;;1.57;;
10295;SDS011;5193;51.032;6.356;2023-12-29T09:03:04;6.37;;;1.30;;
10295;SDS011;5193;51.032;6.356;2023-12-29T09:05:38;4.00;;;1.10;;
10295;SDS011;5193;51.032;6.356;2023-12-29T09:08:04;4.33;;;1.07;;
10295;SDS011;5193;51.032;6.356;2023-12-29T09:10:30;1.03;;;0.70;;
10295;SDS011;5193;51.032;6.356;2023-12-29T09:12:56;4.37;;;1.00;;
10295;SDS011;5193;51.032;6.356;2023-12-29T09:15:22;4.97;;;1.00;;
10295;SDS011;5193;51.032;6.356;2023-12-29T09:17:55;2.20;;;0.80;;
10295;SDS011;5193;51.032;6.356;2023-12-29T09:20:21;3.53;;;0.97;;
10295;SDS011;5193;51.032;6.356;2023-12-29T09:22:46;4.70;;;0.83;;
10295;SDS011;5193;51.032;6.356;2023-12-29T09:25:13;2.93;;;1.07;;
10295;SDS011;5193;51.032;6.356;2023-12-29T09:27:42;6.17;;;1.10;;
10295;SDS011;5193;51.032;6.356;2023-12-29T09:30:09;3.00;;;1.00;;
10295;SDS011;5193;51.032;6.356;2023-12-29T09:32:35;2.40;;;1.13;;
10295;SDS011;5193;51.032;6.356;2023-12-29T09:35:00;3.70;;;1.00;;
10295;SDS011;5193;51.032;6.356;2023-12-29T09:37:26;2.00;;;0.73;;
10295;SDS011;5193;51.032;6.356;2023-12-29T09:39:53;2.80;;;0.90;;
10295;SDS011;5193;51.032;6.356;2023-12-29T09:42:21;3.17;;;0.80;;
10295;SDS011;5193;51.032;6.356;2023-12-29T09:44:52;4.83;;;1.23;;
10295;SDS011;5193;51.032;6.356;2023-12-29T10:11:20;1.27;;;0.90;;
10295;SDS011;5193;51.032;6.356;2023-12-29T10:13:51;6.27;;;1.10;;
10295;SDS011;5193;51.032;6.356;2023-12-29T10:16:32;2.43;;;0.67;;
10295;SDS011;5193;51.032;6.356;2023-12-29T10:19:42;3.73;;;0.73;;
10295;SDS011;5193;51.032;6.356;2023-12-29T10:22:51;3.50;;;0.80;;
10295;SDS011;5193;51.032;6.356;2023-12-29T10:28:47;1.03;;;0.63;;
10295;SDS011;5193;51.032;6.356;2023-12-29T10:31:14;2.23;;;0.60;;
10295;SDS011;5193;51.032;6.356;2023-12-29T10:36:59;1.83;;;0.70;;
10295;SDS011;5193;51.032;6.356;2023-12-29T10:39:32;0.67;;;0.50;;
10295;SDS011;5193;51.032;6.356;2023-12-29T10:42:04;2.53;;;0.83;;
10295;SDS011;5193;51.032;6.356;2023-12-29T10:44:32;2.57;;;0.90;;
10295;SDS011;5193;51.032;6.356;2023-12-29T10:47:12;5.50;;;1.03;;
10295;SDS011;5193;51.032;6.356;2023-12-29T10:49:48;1.00;;;0.57;;
10295;SDS011;5193;51.032;6.356;2023-12-29T10:55:52;4.20;;;1.43;;
10295;SDS011;5193;51.032;6.356;2023-12-29T10:58:20;2.13;;;0.90;;
10295;SDS011;5193;51.032;6.356;2023-12-29T11:00:47;1.90;;;0.70;;
10295;SDS011;5193;51.032;6.356;2023-12-29T11:03:16;3.20;;;0.73;;
10295;SDS011;5193;51.032;6.356;2023-12-29T11:08:33;4.90;;;1.10;;
10295;SDS011;5193;51.032;6.356;2023-12-29T11:11:04;3.33;;;1.10;;
10295;SDS011;5193;51.032;6.356;2023-12-29T11:13:32;5.37;;;1.20;;
10295;SDS011;5193;51.032;6.356;2023-12-29T11:15:58;1.20;;;0.67;;
10295;SDS011;5193;51.032;6.356;2023-12-29T11:18:27;3.30;;;1.10;;
10295;SDS011;5193;51.032;6.356;2023-12-29T11:21:03;4.00;;;0.70;;
10295;SDS011;5193;51.032;6.356;2023-12-29T11:23:31;1.50;;;0.50;;
10295;SDS011;5193;51.032;6.356;2023-12-29T11:26:09;4.17;;;0.83;;
10295;SDS011;5193;51.032;6.356;2023-12-29T11:28:35;4.77;;;0.80;;
10295;SDS011;5193;51.032;6.356;2023-12-29T11:31:01;0.80;;;0.50;;
10295;SDS011;5193;51.032;6.356;2023-12-29T11:33:39;4.73;;;0.83;;
10295;SDS011;5193;51.032;6.356;2023-12-29T11:36:20;4.83;;;1.00;;
10295;SDS011;5193;51.032;6.356;2023-12-29T11:44:33;2.20;;;0.57;;
10295;SDS011;5193;51.032;6.356;2023-12-29T11:46:59;0.73;;;0.57;;
10295;SDS011;5193;51.032;6.356;2023-12-29T11:49:25;2.73;;;0.77;;
10295;SDS011;5193;51.032;6.356;2023-12-29T11:51:55;2.27;;;0.90;;
10295;SDS011;5193;51.032;6.356;2023-12-29T11:54:24;2.60;;;0.77;;
10295;SDS011;5193;51.032;6.356;2023-12-29T11:56:52;1.63;;;0.60;;
10295;SDS011;5193;51.032;6.356;2023-12-29T11:59:27;2.83;;;0.60;;
10295;SDS011;5193;51.032;6.356;2023-12-29T12:05:44;1.97;;;0.57;;
10295;SDS011;5193;51.032;6.356;2023-12-29T12:08:46;4.73;;;1.00;;
10295;SDS011;5193;51.032;6.356;2023-12-29T12:14:04;7.73;;;0.97;;
10295;SDS011;5193;51.032;6.356;2023-12-29T12:16:48;4.27;;;0.77;;
10295;SDS011;5193;51.032;6.356;2023-12-29T12:19:15;1.37;;;0.60;;
10295;SDS011;5193;51.032;6.356;2023-12-29T12:21:45;4.83;;;0.90;;
10295;SDS011;5193;51.032;6.356;2023-12-29T12:24:20;2.83;;;0.77;;
10295;SDS011;5193;51.032;6.356;2023-12-29T12:26:46;2.47;;;0.97;;
10295;SDS011;5193;51.032;6.356;2023-12-29T12:29:12;1.30;;;0.70;;
10295;SDS011;5193;51.032;6.356;2023-12-29T12:31:52;6.03;;;0.77;;
10295;SDS011;5193;51.032;6.356;2023-12-29T12:34:20;1.93;;;0.90;;
10295;SDS011;5193;51.032;6.356;2023-12-29T12:36:52;2.33;;;0.70;;
10295;SDS011;5193;51.032;6.356;2023-12-29T12:39:21;1.53;;;0.60;;
10295;SDS011;5193;51.032;6.356;2023-12-29T12:41:48;1.30;;;0.70;;
10295;SDS011;5193;51.032;6.356;2023-12-29T12:44:18;1.00;;;0.57;;
10295;SDS011;5193;51.032;6.356;2023-12-29T12:46:49;3.20;;;0.73;;
10295;SDS011;5193;51.032;6.356;2023-12-29T12:49:28;1.70;;;0.50;;
10295;SDS011;5193;51.032;6.356;2023-12-29T12:51:55;2.17;;;0.63;;
10295;SDS011;5193;51.032;6.356;2023-12-29T12:54:21;2.37;;;0.80;;
10295;SDS011;5193;51.032;6.356;2023-12-29T12:56:48;2.83;;;0.70;;
10295;SDS011;5193;51.032;6.356;2023-12-29T12:59:20;2.03;;;0.87;;
10295;SDS011;5193;51.032;6.356;2023-12-29T13:01:46;2.27;;;0.90;;
10295;SDS011;5193;51.032;6.356;2023-12-29T13:04:12;0.77;;;0.60;;
10295;SDS011;5193;51.032;6.356;2023-12-29T13:06:41;4.47;;;0.60;;
10295;SDS011;5193;51.032;6.356;2023-12-29T13:09:17;5.10;;;0.80;;
10295;SDS011;5193;51.032;6.356;2023-12-29T13:11:46;2.80;;;0.67;;
10295;SDS011;5193;51.032;6.356;2023-12-29T13:14:22;2.07;;;0.70;;
10295;SDS011;5193;51.032;6.356;2023-12-29T13:16:47;3.23;;;0.87;;
10295;SDS011;5193;51.032;6.356;2023-12-29T13:19:22;2.70;;;0.60;;
10295;SDS011;5193;51.032;6.356;2023-12-29T13:22:07;2.33;;;0.70;;
10295;SDS011;5193;51.032;6.356;2023-12-29T13:24:36;0.97;;;0.60;;
10295;SDS011;5193;51.032;6.356;2023-12-29T13:27:14;1.07;;;0.63;;
10295;SDS011;5193;51.032;6.356;2023-12-29T13:29:40;1.80;;;0.80;;
10295;SDS011;5193;51.032;6.356;2023-12-29T13:32:24;1.73;;;0.47;;
10295;SDS011;5193;51.032;6.356;2023-12-29T13:38:18;4.50;;;0.70;;
10295;SDS011;5193;51.032;6.356;2023-12-29T13:40:54;2.60;;;0.87;;
10295;SDS011;5193;51.032;6.356;2023-12-29T13:43:29;1.63;;;0.57;;
10295;SDS011;5193;51.032;6.356;2023-12-29T13:45:59;1.20;;;0.77;;
10295;SDS011;5193;51.032;6.356;2023-12-29T13:48:28;3.00;;;0.50;;
10295;SDS011;5193;51.032;6.356;2023-12-29T13:51:05;1.77;;;0.50;;
10295;SDS011;5193;51.032;6.356;2023-12-29T13:53:31;2.70;;;0.80;;
10295;SDS011;5193;51.032;6.356;2023-12-29T13:56:10;0.50;;;0.50;;
10295;SDS011;5193;51.032;6.356;2023-12-29T13:58:36;2.47;;;0.50;;
10295;SDS011;5193;51.032;6.356;2023-12-29T14:01:03;5.30;;;0.70;;
10295;SDS011;5193;51.032;6.356;2023-12-29T14:03:43;2.50;;;0.70;;
10295;SDS011;5193;51.032;6.356;2023-12-29T14:06:22;2.57;;;0.60;;
10295;SDS011;5193;51.032;6.356;2023-12-29T14:09:21;1.47;;;0.70;;
10295;SDS011;5193;51.032;6.356;2023-12-29T14:11:48;2.10;;;0.80;;
10295;SDS011;5193;51.032;6.356;2023-12-29T14:14:14;2.93;;;0.53;;
10295;SDS011;5193;51.032;6.356;2023-12-29T14:16:50;3.13;;;0.90;;
10295;SDS011;5193;51.032;6.356;2023-12-29T14:19:17;5.10;;;0.80;;
10295;SDS011;5193;51.032;6.356;2023-12-29T14:21:48;2.13;;;0.63;;
10295;SDS011;5193;51.032;6.356;2023-12-29T14:24:20;1.97;;;0.90;;
10295;SDS011;5193;51.032;6.356;2023-12-29T14:29:18;0.80;;;0.60;;
10295;SDS011;5193;51.032;6.356;2023-12-29T14:31:48;4.40;;;0.63;;
10295;SDS011;5193;51.032;6.356;2023-12-29T14:34:18;1.17;;;0.40;;
10295;SDS011;5193;51.032;6.356;2023-12-29T14:36:47;1.73;;;0.70;;
10295;SDS011;5193;51.032;6.356;2023-12-29T14:39:14;1.40;;;0.50;;
10295;SDS011;5193;51.032;6.356;2023-12-29T14:41:40;3.80;;;0.70;;
10295;SDS011;5193;51.032;6.356;2023-12-29T14:44:06;1.13;;;0.70;;
10295;SDS011;5193;51.032;6.356;2023-12-29T14:46:36;0.80;;;0.60;;
10295;SDS011;5193;51.032;6.356;2023-12-29T14:49:03;2.20;;;0.80;;
10295;SDS011;5193;51.032;6.356;2023-12-29T14:51:29;2.10;;;0.50;;
10295;SDS011;5193;51.032;6.356;2023-12-29T14:57:00;2.67;;;0.60;;
10295;SDS011;5193;51.032;6.356;2023-12-29T14:59:31;0.43;;;0.30;;
10295;SDS011;5193;51.032;6.356;2023-12-29T15:01:57;0.53;;;0.40;;
10295;SDS011;5193;51.032;6.356;2023-12-29T15:04:26;1.17;;;0.97;;
10295;SDS011;5193;51.032;6.356;2023-12-29T15:06:56;1.13;;;0.60;;
10295;SDS011;5193;51.032;6.356;2023-12-29T15:09:26;1.27;;;0.40;;
10295;SDS011;5193;51.032;6.356;2023-12-29T15:11:55;3.50;;;0.80;;
10295;SDS011;5193;51.032;6.356;2023-12-29T15:14:26;1.60;;;0.60;;
10295;SDS011;5193;51.032;6.356;2023-12-29T15:16:51;0.80;;;0.50;;
10295;SDS011;5193;51.032;6.356;2023-12-29T15:22:08;1.77;;;0.93;;
10295;SDS011;5193;51.032;6.356;2023-12-29T15:24:35;1.50;;;0.50;;
10295;SDS011;5193;51.032;6.356;2023-12-29T15:27:02;1.53;;;0.60;;
10295;SDS011;5193;51.032;6.356;2023-12-29T15:29:28;1.77;;;0.87;;
10295;SDS011;5193;51.032;6.356;2023-12-29T15:31:56;5.67;;;0.63;;
10295;SDS011;5193;51.032;6.356;2023-12-29T15:34:22;1.27;;;0.60;;
10295;SDS011;5193;51.032;6.356;2023-12-29T15:36:48;2.10;;;0.80;;
10295;SDS011;5193;51.032;6.356;2023-12-29T15:39:13;0.83;;;0.47;;
10295;SDS011;5193;51.032;6.356;2023-12-29T15:41:39;2.57;;;0.90;;
10295;SDS011;5193;51.032;6.356;2023-12-29T15:44:05;0.83;;;0.80;;
10295;SDS011;5193;51.032;6.356;2023-12-29T15:49:57;2.20;;;0.80;;
10295;SDS011;5193;51.032;6.356;2023-12-29T15:52:24;1.40;;;0.60;;
10295;SDS011;5193;51.032;6.356;2023-12-29T15:54:53;1.63;;;0.70;;
10295;SDS011;5193;51.032;6.356;2023-12-29T15:57:19;2.97;;;0.80;;
10295;SDS011;5193;51.032;6.356;2023-12-29T15:59:45;1.37;;;0.77;;
10295;SDS011;5193;51.032;6.356;2023-12-29T16:02:14;0.73;;;0.73;;
10295;SDS011;5193;51.032;6.356;2023-12-29T16:04:40;1.40;;;0.67;;
10295;SDS011;5193;51.032;6.356;2023-12-29T16:07:08;2.77;;;0.87;;
10295;SDS011;5193;51.032;6.356;2023-12-29T16:09:34;2.30;;;1.23;;
10295;SDS011;5193;51.032;6.356;2023-12-29T16:12:00;1.87;;;1.00;;
10295;SDS011;5193;51.032;6.356;2023-12-29T16:14:39;0.97;;;0.70;;
10295;SDS011;5193;51.032;6.356;2023-12-29T16:17:04;3.03;;;1.00;;
10295;SDS011;5193;51.032;6.356;2023-12-29T16:19:30;4.70;;;1.43;;
10295;SDS011;5193;51.032;6.356;2023-12-29T16:21:56;1.50;;;0.60;;
10295;SDS011;5193;51.032;6.356;2023-12-29T16:27:43;0.90;;;0.63;;
10295;SDS011;5193;51.032;6.356;2023-12-29T16:30:13;3.23;;;0.87;;
10295;SDS011;5193;51.032;6.356;2023-12-29T16:32:38;2.43;;;0.90;;
10295;SDS011;5193;51.032;6.356;2023-12-29T16:35:04;1.93;;;0.80;;
10295;SDS011;5193;51.032;6.356;2023-12-29T16:37:37;4.90;;;0.90;;
10295;SDS011;5193;51.032;6.356;2023-12-29T16:40:09;5.10;;;1.10;;
10295;SDS011;5193;51.032;6.356;2023-12-29T16:42:36;3.33;;;0.97;;
10295;SDS011;5193;51.032;6.356;2023-12-29T16:45:04;3.80;;;1.10;;
10295;SDS011;5193;51.032;6.356;2023-12-29T16:47:29;1.20;;;0.60;;
10295;SDS011;5193;51.032;6.356;2023-12-29T16:50:01;4.80;;;1.00;;
10295;SDS011;5193;51.032;6.356;2023-12-29T16:52:30;2.93;;;0.80;;
10295;SDS011;5193;51.032;6.356;2023-12-29T16:54:56;4.90;;;1.10;;
10295;SDS011;5193;51.032;6.356;2023-12-29T16:57:24;4.17;;;1.00;;
10295;SDS011;5193;51.032;6.356;2023-12-29T16:59:50;3.57;;;1.20;;
10295;SDS011;5193;51.032;6.356;2023-12-29T17:02:16;2.23;;;0.97;;
10295;SDS011;5193;51.032;6.356;2023-12-29T17:04:45;2.90;;;0.97;;
10295;SDS011;5193;51.032;6.356;2023-12-29T17:07:10;4.97;;;1.20;;
10295;SDS011;5193;51.032;6.356;2023-12-29T17:09:36;2.43;;;0.90;;
10295;SDS011;5193;51.032;6.356;2023-12-29T17:12:06;2.50;;;1.07;;